.
WxDataArchive / Data Records for 2015-05-26
2015-05-25 May 2015 2015-05-27

Data Records for Tuesday, 26 May 2015

Time	Temp	Chill	HIndex	Humid	Dewpt	 Wind 	HiWind	WindDir	Rain 	Barom
-----	----	-----	------	-----	-----	------	------	-------	-----	-----
00:00	70.9	70.9	70.9	77	63.3	0	3	315	0.00	30.003 
00:05	70.8	70.8	70.8	77	63.2	0	3	225	0.00	30.003 
00:10	70.8	70.8	70.8	77	63.2	0	1	225	0.00	30.003 
00:15	70.6	70.6	70.6	77	63.0	0	1	225	0.00	30.010 
00:20	70.4	70.4	70.4	77	62.8	0	2	225	0.00	30.010 
00:25	70.3	70.3	70.3	77	62.7	0	1	225	0.00	30.010 
00:30	70.1	70.1	70.1	78	62.9	0	2	225	0.00	30.007 
00:35	69.9	69.9	69.9	78	62.7	0	2	225	0.00	30.007 
00:40	69.8	69.8	69.8	78	62.6	0	1	225	0.00	30.007 
00:45	69.6	69.6	69.6	79	62.8	0	2	225	0.00	30.003 
00:50	69.6	69.6	69.6	79	62.8	0	2	225	0.00	30.003 
00:55	69.4	69.4	69.4	79	62.6	0	2	225	0.00	30.003 
01:00	69.1	69.1	69.1	80	62.7	0	0	---	0.00	30.001 
01:05	68.9	68.9	68.9	80	62.5	0	1	225	0.00	30.001 
01:10	68.8	68.8	68.8	81	62.7	0	0	---	0.00	30.001 
01:15	68.6	68.6	68.6	81	62.5	0	1	225	0.00	30.006 
01:20	68.6	68.6	68.6	81	62.5	0	0	---	0.00	30.006 
01:25	68.4	68.4	68.4	81	62.3	0	1	225	0.00	30.006 
01:30	68.4	68.4	68.4	82	62.7	0	1	225	0.00	29.999 
01:35	68.3	68.3	68.3	82	62.6	0	1	225	0.00	29.999 
01:40	68.1	68.1	68.1	82	62.4	0	1	225	0.00	29.999 
01:45	67.9	67.9	67.9	82	62.2	0	1	225	0.00	29.990 
01:50	67.8	67.8	67.8	83	62.4	0	0	---	0.00	29.990 
01:55	67.6	67.6	67.6	84	62.6	0	1	225	0.00	29.990 
02:00	67.6	67.6	67.6	84	62.6	0	0	---	0.00	29.985 
02:05	67.4	67.4	67.4	84	62.4	0	1	225	0.00	29.985 
02:10	67.3	67.3	67.3	84	62.3	0	0	---	0.00	29.985 
02:15	67.1	67.1	67.1	85	62.4	0	1	225	0.00	29.985 
02:20	66.9	66.9	66.9	85	62.2	0	0	---	0.00	29.985 
02:25	66.9	66.9	66.9	85	62.2	0	1	225	0.00	29.985 
02:30	66.8	66.8	66.8	86	62.5	0	1	225	0.00	29.982 
02:35	66.6	66.6	66.6	86	62.3	0	0	---	0.00	29.982 
02:40	66.4	66.4	66.4	86	62.1	0	0	---	0.00	29.982 
02:45	66.3	66.3	66.3	87	62.3	0	0	---	0.00	29.990 
02:50	66.3	66.3	66.3	87	62.3	0	1	225	0.00	29.990 
02:55	66.1	66.1	66.1	87	62.1	0	0	---	0.00	29.990 
03:00	66.1	66.1	66.1	88	62.4	0	1	225	0.00	29.983 
03:05	66.1	66.1	66.1	88	62.4	0	0	---	0.00	29.983 
03:10	66.0	66.0	66.0	88	62.3	0	1	225	0.00	29.983 
03:15	66.0	66.0	66.0	88	62.3	0	1	225	0.00	29.984 
03:20	65.8	65.8	65.8	88	62.1	0	0	---	0.00	29.984 
03:25	65.8	65.8	65.8	88	62.1	0	1	225	0.00	29.984 
03:30	65.6	65.6	65.6	88	61.9	0	0	---	0.00	29.987 
03:35	65.5	65.5	65.5	88	61.8	0	0	---	0.00	29.987 
03:40	65.3	65.3	65.3	89	62.0	0	0	---	0.00	29.987 
03:45	65.2	65.2	65.2	89	61.9	0	0	---	0.00	29.986 
03:50	65.2	65.2	65.2	89	61.9	0	0	---	0.00	29.986 
03:55	65.0	65.0	65.0	90	62.0	0	1	225	0.00	29.986 
04:00	64.8	64.8	64.8	90	61.8	0	0	---	0.00	29.983 
04:05	64.7	64.7	64.7	90	61.7	0	0	---	0.00	29.983 
04:10	64.5	64.5	64.5	90	61.5	0	0	---	0.00	29.983 
04:15	64.5	64.5	64.5	90	61.5	0	0	---	0.00	29.984 
04:20	64.5	64.5	64.5	91	61.8	0	0	---	0.00	29.984 
04:25	64.5	64.5	64.5	91	61.8	0	0	---	0.00	29.984 
04:30	64.3	64.3	64.3	91	61.6	0	0	---	0.00	29.985 
04:35	64.2	64.2	64.2	91	61.5	0	0	---	0.00	29.985 
04:40	64.2	64.2	64.2	91	61.5	0	0	---	0.00	29.985 
04:45	64.0	64.0	64.0	91	61.3	0	0	---	0.00	29.990 
04:50	63.9	63.9	63.9	92	61.5	0	0	---	0.00	29.990 
04:55	63.9	63.9	63.9	92	61.5	0	0	---	0.00	29.990 
05:00	63.9	63.9	63.9	92	61.5	0	0	---	0.00	29.991 
05:05	63.9	63.9	63.9	92	61.5	0	1	225	0.00	29.991 
05:10	63.9	63.9	63.9	92	61.5	0	0	---	0.00	29.991 
05:15	63.9	63.9	63.9	92	61.5	0	1	225	0.00	29.985 
05:20	63.7	63.7	63.7	92	61.3	0	0	---	0.00	29.985 
05:25	63.5	63.5	63.5	92	61.1	0	0	---	0.00	29.985 
05:30	63.5	63.5	63.5	92	61.1	0	0	---	0.00	29.984 
05:35	63.5	63.5	63.5	92	61.1	0	0	---	0.00	29.984 
05:40	63.2	63.2	63.2	92	60.8	0	0	---	0.00	29.984 
05:45	63.1	63.1	63.1	92	60.7	0	0	---	0.00	29.989 
05:50	62.7	62.7	62.7	92	60.3	0	0	---	0.00	29.989 
05:55	62.4	62.4	62.4	92	60.0	0	0	---	0.00	29.989 
06:00	62.3	62.3	62.3	93	60.2	0	0	---	0.00	29.990 
06:05	62.3	62.3	62.3	93	60.2	0	0	---	0.00	29.990 
06:10	62.3	62.3	62.3	93	60.2	0	0	---	0.00	29.990 
06:15	62.0	62.0	62.0	93	59.9	0	0	---	0.00	30.001 
06:20	61.8	61.8	61.8	93	59.8	0	0	---	0.00	30.001 
06:25	61.6	61.6	61.6	93	59.6	0	0	---	0.00	30.001 
06:30	61.5	61.5	61.5	93	59.5	0	0	---	0.00	30.006 
06:35	61.5	61.5	61.5	93	59.5	0	0	---	0.00	30.006 
06:40	61.5	61.5	61.5	93	59.5	0	0	---	0.00	30.006 
06:45	61.5	61.5	61.5	93	59.5	0	0	---	0.00	30.018 
06:50	61.8	61.8	61.8	94	60.1	0	1	225	0.00	30.018 
06:55	62.4	62.4	62.4	94	60.6	0	1	225	0.00	30.018 
07:00	63.2	63.2	63.2	94	61.4	0	2	225	0.00	30.017 
07:05	63.5	63.5	63.5	94	61.7	0	2	225	0.00	30.017 
07:10	63.9	63.9	63.9	94	62.1	0	1	225	0.00	30.017 
07:15	64.0	64.0	64.0	94	62.2	0	2	225	0.00	30.016 
07:20	64.2	64.2	64.2	94	62.4	0	1	225	0.00	30.016 
07:25	64.5	64.5	64.5	94	62.7	0	0	---	0.00	30.016 
07:30	64.7	64.7	64.7	94	62.9	0	1	225	0.00	30.014 
07:35	64.8	64.8	64.8	94	63.0	0	1	225	0.00	30.014 
07:40	65.0	65.0	65.0	94	63.2	0	1	225	0.00	30.014 
07:45	65.2	65.2	65.2	94	63.4	0	1	225	0.00	30.015 
07:50	65.2	65.2	65.2	94	63.4	0	0	---	0.00	30.015 
07:55	65.5	65.5	65.5	94	63.7	0	0	---	0.00	30.015 
08:00	66.0	66.0	66.0	94	64.2	0	2	225	0.00	30.006 
08:05	66.6	66.6	66.6	93	64.5	0	3	225	0.00	30.006 
08:10	67.3	67.3	67.3	92	64.9	0	1	225	0.00	30.006 
08:15	67.6	67.6	67.6	92	65.2	0	1	225	0.00	30.008 
08:20	68.3	68.3	68.3	90	65.2	0	1	225	0.00	30.008 
08:25	68.6	68.6	68.6	89	65.2	0	1	225	0.00	30.008 
08:30	68.9	68.9	68.9	88	65.2	0	1	225	0.00	30.008 
08:35	69.3	69.3	69.3	87	65.3	0	1	225	0.00	30.008 
08:40	69.4	69.4	69.4	86	65.0	0	3	225	0.00	30.008 
08:45	69.4	69.4	69.4	85	64.7	0	1	225	0.00	30.006 
08:50	69.6	69.6	69.6	85	64.9	0	2	225	0.00	30.006 
08:55	69.8	69.8	69.8	85	65.1	0	0	---	0.00	30.006 
09:00	70.1	70.1	70.1	84	65.0	0	3	225	0.00	30.001 
09:05	70.4	70.4	70.4	84	65.3	0	1	225	0.00	30.001 
09:10	70.9	70.9	70.9	83	65.5	0	1	225	0.00	30.001 
09:15	71.5	71.5	71.5	82	65.7	1	3	225	0.00	30.001 
09:20	71.5	71.5	71.5	81	65.4	0	4	90	0.00	30.001 
09:25	71.6	71.6	71.6	81	65.4	1	4	90	0.00	30.001 
09:30	72.0	72.0	72.0	79	65.1	1	5	45	0.00	29.998 
09:35	72.1	72.1	72.1	79	65.2	0	3	68	0.00	29.998 
09:40	72.3	72.3	72.3	80	65.8	0	1	68	0.00	29.998 
09:45	73.0	73.0	73.0	79	66.1	0	3	68	0.00	29.996 
09:50	73.7	73.7	73.7	77	66.0	1	3	68	0.00	29.996 
09:55	74.4	74.4	74.4	75	65.9	0	3	68	0.00	29.996 
10:00	74.7	74.7	74.7	75	66.2	0	2	292	0.00	29.993 
10:05	75.1	75.1	76.4	74	66.2	0	3	292	0.00	29.993 
10:10	75.3	75.3	76.7	73	66.0	1	4	315	0.00	29.993 
10:15	75.6	75.6	77.2	71	65.5	1	5	270	0.00	29.992 
10:20	75.6	75.6	77.1	72	65.9	1	5	292	0.00	29.992 
10:25	75.8	75.8	77.4	71	65.7	1	3	270	0.00	29.992 
10:30	76.3	76.3	77.9	72	66.6	1	4	270	0.00	29.979 
10:35	76.8	76.8	78.6	69	65.8	0	2	270	0.00	29.979 
10:40	77.7	77.7	79.6	69	66.7	0	1	270	0.00	29.979 
10:45	78.1	78.1	80.0	67	66.2	1	3	90	0.00	29.969 
10:50	78.3	78.3	80.2	66	66.0	1	4	90	0.00	29.969 
10:55	78.5	78.5	80.5	66	66.2	1	4	90	0.00	29.969 
11:00	78.6	78.6	80.6	66	66.3	1	5	112	0.00	29.961 
11:05	78.6	78.6	80.6	65	65.8	1	3	270	0.00	29.961 
11:10	79.0	79.0	81.0	64	65.8	1	5	90	0.00	29.961 
11:15	79.2	79.2	81.1	62	65.0	1	6	270	0.00	29.957 
11:20	79.4	79.4	81.4	63	65.7	1	5	270	0.00	29.957 
11:25	79.6	79.6	81.5	62	65.4	1	4	112	0.00	29.957 
11:30	79.8	79.8	81.7	61	65.1	1	5	90	0.00	29.952 
11:35	79.9	79.9	81.8	61	65.2	0	5	315	0.00	29.952 
11:40	80.1	80.1	81.7	58	64.0	1	5	90	0.00	29.952 
11:45	80.3	80.3	81.9	58	64.2	1	4	292	0.00	29.945 
11:50	80.7	80.7	82.3	57	64.0	1	6	90	0.00	29.945 
11:55	81.2	81.2	82.9	57	64.5	0	2	22	0.00	29.945 
12:00	81.8	81.8	83.8	58	65.6	1	3	315	0.00	29.932 
12:05	82.4	82.4	84.2	56	65.1	1	3	90	0.00	29.932 
12:10	82.6	82.6	84.0	53	63.7	2	7	90	0.00	29.932 
12:15	82.6	82.6	83.4	50	62.0	2	5	90	0.00	29.928 
12:20	82.4	82.4	83.4	51	62.4	2	7	112	0.00	29.928 
12:25	82.6	82.6	84.0	53	63.7	1	4	90	0.00	29.928 
12:30	83.2	83.2	84.7	53	64.3	0	3	68	0.00	29.915 
12:35	83.6	83.6	84.6	50	63.0	2	5	90	0.00	29.915 
12:40	83.4	83.4	84.0	48	61.6	2	9	90	0.00	29.915 
12:45	83.4	83.4	84.2	49	62.2	1	5	90	0.00	29.914 
12:50	83.4	83.4	84.4	50	62.8	2	7	90	0.00	29.914 
12:55	83.2	83.2	83.8	48	61.4	2	9	90	0.00	29.914 
13:00	83.2	83.2	83.8	48	61.4	2	9	68	0.00	29.907 
13:05	83.4	83.4	84.2	49	62.2	1	6	68	0.00	29.907 
13:10	83.4	83.4	84.4	50	62.8	2	5	68	0.00	29.907 
13:15	83.4	83.4	84.2	49	62.2	1	5	90	0.00	29.906 
13:20	83.4	83.4	84.4	50	62.8	3	6	112	0.00	29.906 
13:25	83.6	83.6	84.6	50	63.0	2	5	68	0.00	29.906 
13:30	83.6	83.6	84.4	49	62.4	2	7	68	0.00	29.901 
13:35	83.4	83.4	84.6	51	63.3	1	5	90	0.00	29.901 
13:40	84.0	84.0	85.1	50	63.3	2	6	90	0.00	29.901 
13:45	84.0	84.0	85.3	51	63.9	2	6	68	0.00	29.895 
13:50	84.0	84.0	85.1	50	63.3	2	5	45	0.00	29.895 
13:55	83.6	83.6	84.6	50	63.0	3	7	90	0.00	29.895 
14:00	83.6	83.6	84.6	50	63.0	2	8	90	0.00	29.883 
14:05	83.8	83.8	84.9	50	63.1	2	9	90	0.00	29.883 
14:10	83.2	83.2	84.3	51	63.2	2	5	90	0.00	29.883 
14:15	83.0	83.0	84.3	52	63.5	2	5	90	0.00	29.872 
14:20	82.6	82.6	83.8	52	63.2	2	6	90	0.00	29.872 
14:25	82.4	82.4	83.5	52	63.0	2	7	90	0.00	29.872 
14:30	82.6	82.6	83.8	52	63.2	2	10	338	0.00	29.863 
14:35	82.8	82.8	84.0	52	63.3	2	7	112	0.00	29.863 
14:40	83.0	83.0	84.7	54	64.6	1	5	90	0.00	29.863 
14:45	83.2	83.2	84.7	53	64.3	1	7	90	0.00	29.853 
14:50	83.2	83.2	84.5	52	63.7	1	5	90	0.00	29.853 
14:55	83.2	83.2	84.7	53	64.3	1	4	90	0.00	29.853 
15:00	82.8	82.8	84.2	53	63.9	1	4	68	0.00	29.846 
15:05	82.4	82.4	83.9	54	64.1	2	6	68	0.00	29.846 
15:10	82.6	82.6	84.3	55	64.8	1	5	45	0.00	29.846 
15:15	83.0	83.0	84.3	52	63.5	1	6	22	0.00	29.840 
15:20	83.2	83.2	84.7	53	64.3	1	5	90	0.00	29.840 
15:25	83.0	83.0	84.5	53	64.1	2	7	90	0.00	29.840 
15:30	82.6	82.6	83.6	51	62.6	2	7	90	0.00	29.836 
15:35	82.4	82.4	83.5	52	63.0	1	5	45	0.00	29.836 
15:40	82.4	82.4	83.4	51	62.4	1	4	248	0.00	29.836 
15:45	82.4	82.4	83.5	52	63.0	1	3	315	0.00	29.832 
15:50	82.4	82.4	83.5	52	63.0	1	5	270	0.00	29.832 
15:55	82.2	82.2	83.1	51	62.2	2	6	112	0.00	29.832 
16:00	81.8	81.8	83.3	55	64.0	0	2	112	0.00	29.840 
16:05	80.1	80.1	82.3	63	66.3	3	10	270	0.04	29.840 
16:10	76.1	76.1	77.5	75	67.6	2	5	270	0.14	29.840 
16:15	73.7	73.7	73.7	80	67.1	1	5	248	0.03	29.864 
16:20	72.3	72.3	72.3	84	67.2	1	7	292	0.01	29.864 
16:25	71.6	71.6	71.6	86	67.2	1	4	270	0.02	29.864 
16:30	70.9	70.9	70.9	87	66.8	1	3	270	0.01	29.865 
16:35	70.6	70.6	70.6	88	66.9	1	3	248	0.00	29.865 
16:40	70.4	70.4	70.4	89	67.0	0	3	248	0.00	29.865 
16:45	70.3	70.3	70.3	90	67.2	1	3	270	0.00	29.860 
16:50	70.3	70.3	70.3	90	67.2	1	8	270	0.00	29.860 
16:55	70.3	70.3	70.3	91	67.5	1	3	270	0.01	29.860 
17:00	70.3	70.3	70.3	91	67.5	1	4	270	0.00	29.863 
17:05	70.1	70.1	70.1	91	67.3	0	2	270	0.00	29.863 
17:10	70.1	70.1	70.1	91	67.3	1	4	248	0.01	29.863 
17:15	69.9	69.9	69.9	91	67.1	1	4	22	0.01	29.861 
17:20	69.9	69.9	69.9	92	67.5	0	2	338	0.00	29.861 
17:25	69.9	69.9	69.9	92	67.5	0	4	0	0.00	29.861 
17:30	69.9	69.9	69.9	92	67.5	0	3	0	0.00	29.850 
17:35	69.9	69.9	69.9	92	67.5	0	2	315	0.00	29.850 
17:40	70.1	70.1	70.1	92	67.7	0	2	45	0.00	29.850 
17:45	70.4	70.4	70.4	93	68.3	0	2	45	0.00	29.849 
17:50	70.8	70.8	70.8	92	68.4	0	2	45	0.00	29.849 
17:55	70.8	70.8	70.8	92	68.4	0	3	248	0.00	29.849 
18:00	70.8	70.8	70.8	92	68.4	0	3	248	0.00	29.850 
18:05	70.8	70.8	70.8	92	68.4	0	2	248	0.00	29.850 
18:10	70.9	70.9	70.9	92	68.5	0	2	248	0.00	29.850 
18:15	70.9	70.9	70.9	92	68.5	1	6	90	0.00	29.850 
18:20	70.9	70.9	70.9	91	68.1	0	2	45	0.00	29.850 
18:25	70.9	70.9	70.9	91	68.1	0	3	112	0.00	29.850 
18:30	70.9	70.9	70.9	91	68.1	0	3	112	0.00	29.848 
18:35	70.8	70.8	70.8	89	67.4	1	5	90	0.00	29.848 
18:40	70.9	70.9	70.9	89	67.5	1	3	68	0.00	29.848 
18:45	71.1	71.1	71.1	88	67.4	1	4	248	0.00	29.846 
18:50	71.5	71.5	71.5	88	67.7	0	1	248	0.00	29.846 
18:55	72.0	72.0	72.0	87	67.9	1	3	248	0.00	29.846 
19:00	72.5	72.5	72.5	85	67.7	1	6	90	0.00	29.840 
19:05	72.8	72.8	72.8	84	67.7	1	5	90	0.00	29.840 
19:10	72.8	72.8	72.8	82	67.0	2	9	68	0.00	29.840 
19:15	73.0	73.0	73.0	81	66.8	1	7	248	0.00	29.836 
19:20	73.2	73.2	73.2	81	67.0	1	4	135	0.00	29.836 
19:25	73.0	73.0	73.0	80	66.5	2	8	90	0.00	29.836 
19:30	73.0	73.0	73.0	80	66.5	0	4	90	0.00	29.835 
19:35	72.8	72.8	72.8	80	66.3	1	6	270	0.00	29.835 
19:40	72.7	72.7	72.7	80	66.2	1	5	270	0.00	29.835 
19:45	72.7	72.7	72.7	80	66.2	0	4	270	0.00	29.832 
19:50	72.7	72.7	72.7	80	66.2	0	3	68	0.00	29.832 
19:55	72.7	72.7	72.7	80	66.2	0	3	68	0.00	29.832 
20:00	72.7	72.7	72.7	80	66.2	0	2	0	0.00	29.835 
20:05	72.7	72.7	72.7	80	66.2	1	3	0	0.00	29.835 
20:10	72.7	72.7	72.7	79	65.8	1	5	22	0.00	29.835 
20:15	72.7	72.7	72.7	79	65.8	0	3	45	0.00	29.833 
20:20	72.7	72.7	72.7	79	65.8	0	4	45	0.00	29.833 
20:25	72.7	72.7	72.7	79	65.8	0	3	292	0.00	29.833 
20:30	72.5	72.5	72.5	80	66.0	0	2	292	0.00	29.829 
20:35	72.3	72.3	72.3	80	65.8	0	1	292	0.00	29.829 
20:40	72.1	72.1	72.1	81	65.9	0	2	292	0.00	29.829 
20:45	72.1	72.1	72.1	81	65.9	0	2	292	0.00	29.826 
20:50	72.0	72.0	72.0	81	65.8	1	5	45	0.00	29.826 
20:55	72.0	72.0	72.0	82	66.2	0	3	45	0.00	29.826 
21:00	71.8	71.8	71.8	82	66.0	0	2	315	0.00	29.833 
21:05	71.8	71.8	71.8	82	66.0	1	5	135	0.00	29.833 
21:10	71.8	71.8	71.8	82	66.0	1	7	90	0.00	29.833 
21:15	71.6	71.6	71.6	82	65.8	0	4	270	0.00	29.838 
21:20	71.6	71.6	71.6	82	65.8	0	2	270	0.00	29.838 
21:25	71.6	71.6	71.6	82	65.8	0	1	270	0.00	29.838 
21:30	71.6	71.6	71.6	82	65.8	1	4	270	0.00	29.842 
21:35	71.5	71.5	71.5	82	65.7	0	2	292	0.00	29.842 
21:40	71.5	71.5	71.5	83	66.1	0	2	315	0.00	29.842 
21:45	71.5	71.5	71.5	83	66.1	0	1	315	0.00	29.851 
21:50	71.5	71.5	71.5	82	65.7	0	3	315	0.00	29.851 
21:55	71.5	71.5	71.5	82	65.7	0	2	315	0.00	29.851 
22:00	71.5	71.5	71.5	82	65.7	0	3	248	0.00	29.858 
22:05	71.5	71.5	71.5	82	65.7	0	3	270	0.00	29.858 
22:10	71.5	71.5	71.5	82	65.7	0	2	270	0.00	29.858 
22:15	71.5	71.5	71.5	82	65.7	0	4	270	0.00	29.866 
22:20	71.5	71.5	71.5	82	65.7	1	5	45	0.00	29.866 
22:25	71.5	71.5	71.5	82	65.7	0	2	248	0.00	29.866 
22:30	71.5	71.5	71.5	82	65.7	0	2	248	0.00	29.869 
22:35	71.3	71.3	71.3	82	65.5	0	3	248	0.00	29.869 
22:40	71.3	71.3	71.3	82	65.5	0	2	248	0.00	29.869 
22:45	71.1	71.1	71.1	83	65.7	0	2	248	0.00	29.872 
22:50	70.9	70.9	70.9	83	65.5	0	1	248	0.00	29.872 
22:55	70.9	70.9	70.9	83	65.5	0	2	248	0.00	29.872 
23:00	70.9	70.9	70.9	84	65.8	0	4	248	0.01	29.882 
23:05	70.9	70.9	70.9	84	65.8	0	2	248	0.00	29.882 
23:10	70.8	70.8	70.8	84	65.7	0	1	248	0.00	29.882 
23:15	70.8	70.8	70.8	84	65.7	0	1	248	0.00	29.883 
23:20	70.8	70.8	70.8	84	65.7	0	3	248	0.00	29.883 
23:25	70.8	70.8	70.8	83	65.4	0	2	248	0.00	29.883 
23:30	70.8	70.8	70.8	83	65.4	0	2	248	0.00	29.890 
23:35	70.8	70.8	70.8	83	65.4	0	1	248	0.00	29.890 
23:40	70.8	70.8	70.8	83	65.4	0	1	248	0.00	29.890 
23:45	70.6	70.6	70.6	83	65.2	0	0	---	0.00	29.894 
23:50	70.4	70.4	70.4	83	65.0	0	2	248	0.00	29.894 
23:55	70.3	70.3	70.3	83	64.9	0	1	248	0.00	29.894 

CoCoRaHS
IN-AL-39
A2 Web Hosting
Creative Commons License
GoDaddy
search engine by freefind advanced

loaded 2018-11-20 06:17:39 • last modified 2010-11-18 10:43:29
Privacy PolicyDisclaimer
• wx.awcolley.com is powered by PmWiki v.2002016 •
• all content (unless otherwise noted) © 2018 A W Colley